메인 페이지
METAR-TAF:

METAR-TAF

공항 :

상조제두스캄푸스, 상파울루, 브라질

위도: 23-14S, 경도: 045-52W, 고도: 646m

현재 날씨관측

예보는 1 시간 5분 전, 01:00시(UTC)에 발표되었습니다.
남남동2kt
온도 24°C
습도 69%
기압 1013 hPa
시정 10km 이상
1500m 미만 상공 구름 및 적란운 없음

METAR: SBSJ 030100Z 16002KT CAVOK 24/18 Q1013

시각: 23:05 (02:05 UTC)

예보

예보는 5 시간 5분 전, 21:00시(UTC)에 발표되었습니다.
예보 대상 시간: 03일 00시부터 03일 24시까지 (UTC)
5kt
시정: 7000m
고도 1700ft 상공 구름 보통
확률 30%
03일 09시부터 03일 11시까지 (UTC)
시정: 4000m
고도 1000ft 상공 구름 많음
박무
전환 중
03일 12시부터 03일 14시까지 (UTC)
10kt
고도 2000ft 상공 구름 보통
고도 3000ft 상공 구름 조금, 타워링 적운.
전환 중
03일 16시부터 03일 18시까지 (UTC)
남서10kt
시정: 5000m
고도 2000ft 상공 구름 보통
고도 3000ft 상공 구름 조금, 적란운.
뇌우, 비

TAF: SBSJ 022100Z 0300/0324 35005KT 7000 SCT017 TN21/0309Z TX29/0317Z PROB30 0309/0311 4000 BR BKN010 BECMG 0312/0314 28010KT SCT020 FEW030TCU BECMG 0316/0318 22010KT 5000 TSRA SCT020 FEW030CB RMK PGU

4,000개 이상의 공항 관측 자료 및 예보 (METAR 및 TAF 보고).

지도상에서 검색 가능한 기상관측소가 노란 점과 빨간 점으로 표시되어 있습니다.

기상관측소 명을 보려면 표시 위로 마우스를 이동하세요.

날씨 관측과 예보를 보려면 클릭하세요.

지도 변경 : 확대하려면 엑스 표시가 있는 녹색 버튼, 축소하려면 빼기 표시가 있는 녹색 버튼, 다음 페이지의 지도를 보려면 녹색 화살표를 클릭하세요.


METAR-TAF: